Time;durP1;ratioP1;P1;durP2;ratioP2;P2;SDS_P1;SDS_P2;PMS_P1;PMS_P2;Temp;Humidity;BMP_temperature;BMP_pressure;BME280_temperature;BME280_humidity;BME280_pressure;Samples;Min_cycle;Max_cycle;Signal;HPM_P1;HPM_P2
2021/07/24 00:01:18;;;;;;;1.70;1.30;;;17.60;70.80;;;;;;5067447;28;20445;-86
2021/07/24 00:03:44;;;;;;;1.08;0.95;;;17.50;70.80;;;;;;4983976;28;20045;-85
2021/07/24 00:06:09;;;;;;;1.92;1.15;;;17.50;70.90;;;;;;5010817;28;20444;-83
2021/07/24 00:08:36;;;;;;;1.63;1.20;;;17.50;71.00;;;;;;5012510;28;20164;-85
2021/07/24 00:11:04;;;;;;;1.65;1.23;;;17.50;71.10;;;;;;5011901;28;20042;-86
2021/07/24 00:13:32;;;;;;;2.17;1.27;;;17.50;71.10;;;;;;5013057;28;20192;-85
2021/07/24 00:16:10;;;;;;;3.17;1.30;;;17.50;71.20;;;;;;4957431;28;20142;-86
2021/07/24 00:18:36;;;;;;;2.20;1.58;;;17.50;71.30;;;;;;4918639;29;20083;-85
2021/07/24 00:21:09;;;;;;;2.30;1.30;;;17.50;71.30;;;;;;4935154;29;20036;-88
2021/07/24 00:37:39;;;;;;;1.30;1.00;;;17.30;71.40;;;;;;4935205;29;20107;-93
2021/07/24 00:41:09;;;;;;;1.50;1.23;;;17.30;71.40;;;;;;4945091;28;20055;-93
2021/07/24 00:43:36;;;;;;;1.00;0.88;;;17.20;71.40;;;;;;4952871;29;20490;-81
2021/07/24 00:46:04;;;;;;;1.00;0.90;;;17.30;71.50;;;;;;4972901;28;20568;-83
2021/07/24 00:48:34;;;;;;;1.67;1.00;;;17.20;71.50;;;;;;4984170;28;20133;-83
2021/07/24 00:51:00;;;;;;;1.55;1.10;;;17.20;71.60;;;;;;5054923;28;20037;-84
2021/07/24 00:53:34;;;;;;;3.97;1.40;;;17.10;71.50;;;;;;5054870;28;20123;-81
2021/07/24 00:56:01;;;;;;;1.08;0.90;;;17.20;71.70;;;;;;5054363;28;20075;-84
2021/07/24 00:58:29;;;;;;;1.88;1.30;;;17.20;71.80;;;;;;5037999;28;20036;-84
2021/07/24 01:00:55;;;;;;;1.63;1.27;;;17.20;71.80;;;;;;5022572;28;20502;-86
2021/07/24 01:03:31;;;;;;;1.83;1.30;;;17.20;71.90;;;;;;5036694;28;20044;-87
2021/07/24 01:06:18;;;;;;;1.75;1.33;;;17.30;72.10;;;;;;5027872;28;20037;-88
2021/07/24 01:08:45;;;;;;;1.30;1.05;;;17.10;72.00;;;;;;4997637;28;20087;-81
2021/07/24 01:19:15;;;;;;;1.58;1.10;;;17.10;72.10;;;;;;4960443;28;20237;-94
2021/07/24 01:21:41;;;;;;;1.90;1.10;;;17.10;72.00;;;;;;4962810;28;20050;-82
2021/07/24 01:24:06;;;;;;;2.08;1.25;;;17.00;72.00;;;;;;4955241;28;20518;-82
2021/07/24 01:26:44;;;;;;;2.35;1.30;;;17.00;72.20;;;;;;4955983;28;20047;-81
2021/07/24 01:29:14;;;;;;;2.10;1.20;;;17.00;72.30;;;;;;4957052;28;20047;-82
2021/07/24 01:31:41;;;;;;;1.08;0.93;;;17.10;73.10;;;;;;4942249;28;20043;-80
2021/07/24 01:34:08;;;;;;;2.05;1.20;;;17.00;72.40;;;;;;4948013;28;20046;-82
2021/07/24 01:36:33;;;;;;;1.35;1.05;;;17.00;72.50;;;;;;4969571;28;20070;-84
2021/07/24 01:39:00;;;;;;;2.03;1.33;;;17.00;72.60;;;;;;4995225;28;20627;-83
2021/07/24 01:41:25;;;;;;;1.88;1.40;;;17.00;73.30;;;;;;4994916;28;20084;-84
2021/07/24 01:43:51;;;;;;;2.15;1.35;;;16.90;72.80;;;;;;4995067;28;20050;-85
2021/07/24 01:46:17;;;;;;;1.55;1.27;;;17.00;72.90;;;;;;5054471;28;20132;-84
2021/07/24 01:48:46;;;;;;;1.58;1.20;;;16.90;72.90;;;;;;5041505;28;20451;-84
2021/07/24 01:54:00;;;;;;;1.85;1.08;;;16.80;73.00;;;;;;5060231;28;20044;-85
2021/07/24 01:56:28;;;;;;;1.67;1.20;;;16.80;73.00;;;;;;5040235;28;20044;-85
2021/07/24 01:58:54;;;;;;;2.08;1.35;;;16.80;73.10;;;;;;5024976;28;20579;-84
2021/07/24 02:01:21;;;;;;;2.42;1.42;;;16.80;73.20;;;;;;5058024;28;20037;-85
2021/07/24 02:03:54;;;;;;;1.45;1.13;;;16.70;73.20;;;;;;5039458;28;20127;-84
2021/07/24 02:06:21;;;;;;;1.50;1.10;;;16.80;73.40;;;;;;5054875;28;20056;-83
2021/07/24 02:08:50;;;;;;;1.80;1.20;;;16.70;73.40;;;;;;5020687;28;20091;-84
2021/07/24 02:11:17;;;;;;;2.17;1.30;;;16.70;73.50;;;;;;5057590;28;20048;-84
2021/07/24 02:13:45;;;;;;;2.00;1.20;;;16.70;73.60;;;;;;5038861;28;20041;-84
2021/07/24 02:16:12;;;;;;;1.98;1.15;;;16.60;73.70;;;;;;5056832;28;20101;-85
2021/07/24 02:18:39;;;;;;;1.88;1.27;;;16.60;73.80;;;;;;5022905;28;20481;-83
2021/07/24 02:21:05;;;;;;;1.75;1.15;;;16.60;73.80;;;;;;5056703;28;20048;-85
2021/07/24 02:23:31;;;;;;;1.52;1.20;;;16.50;73.70;;;;;;5056406;28;20043;-84
2021/07/24 02:25:57;;;;;;;2.00;1.20;;;16.50;73.70;;;;;;5040793;28;20052;-84
2021/07/24 02:28:23;;;;;;;2.08;1.27;;;16.50;73.90;;;;;;5054944;28;20040;-84
2021/07/24 02:30:48;;;;;;;1.92;1.10;;;16.50;74.00;;;;;;5040094;28;20544;-83
2021/07/24 02:33:14;;;;;;;2.28;1.50;;;16.50;74.10;;;;;;5074514;28;20041;-84
2021/07/24 02:35:41;;;;;;;1.35;1.08;;;16.50;74.20;;;;;;5054523;28;20041;-84
2021/07/24 02:38:07;;;;;;;2.25;1.25;;;16.50;74.30;;;;;;5074499;28;20040;-85
2021/07/24 02:40:33;;;;;;;1.77;1.15;;;16.40;74.30;;;;;;5052455;28;20615;-83
2021/07/24 02:42:59;;;;;;;1.58;1.10;;;16.50;74.40;;;;;;5021114;28;20487;-85
2021/07/24 02:45:25;;;;;;;1.77;1.20;;;16.40;74.50;;;;;;5040445;28;20040;-83
2021/07/24 02:47:50;;;;;;;1.58;1.08;;;16.40;74.50;;;;;;5056462;28;20040;-84
2021/07/24 02:50:17;;;;;;;2.45;1.40;;;16.30;74.50;;;;;;5057163;28;20033;-85
2021/07/24 02:52:43;;;;;;;1.50;1.10;;;16.20;74.60;;;;;;5037786;28;20032;-83
2021/07/24 02:55:09;;;;;;;1.60;1.20;;;16.30;74.70;;;;;;5039934;28;20043;-84
2021/07/24 02:57:35;;;;;;;2.42;1.35;;;16.30;74.80;;;;;;5054246;28;20048;-84
2021/07/24 03:00:02;;;;;;;2.22;1.38;;;16.30;74.90;;;;;;5056699;28;20128;-85
2021/07/24 03:02:28;;;;;;;2.05;1.05;;;16.20;74.90;;;;;;5056458;28;20056;-84
2021/07/24 03:04:54;;;;;;;1.20;1.00;;;16.20;75.00;;;;;;5037647;28;20044;-83
2021/07/24 03:07:20;;;;;;;1.88;1.20;;;16.20;75.10;;;;;;5021048;28;20402;-83
2021/07/24 03:09:46;;;;;;;1.60;1.10;;;16.10;75.10;;;;;;5055849;28;20057;-83
2021/07/24 03:12:11;;;;;;;1.77;1.08;;;16.10;75.20;;;;;;5051706;28;20049;-85
2021/07/24 03:14:37;;;;;;;2.25;1.33;;;16.00;75.20;;;;;;5056034;28;20045;-84
2021/07/24 03:17:03;;;;;;;2.97;1.50;;;16.00;75.30;;;;;;5037535;28;20123;-85
2021/07/24 03:19:28;;;;;;;2.33;1.33;;;16.00;75.40;;;;;;5022656;28;20052;-84
2021/07/24 03:21:54;;;;;;;1.80;1.10;;;16.10;75.60;;;;;;5039253;28;20513;-84
2021/07/24 03:24:20;;;;;;;2.15;1.20;;;16.00;75.60;;;;;;5055942;28;20045;-84
2021/07/24 03:26:45;;;;;;;1.90;1.30;;;16.00;75.60;;;;;;5056176;28;20032;-84
2021/07/24 03:29:11;;;;;;;2.70;1.52;;;16.00;75.70;;;;;;5056423;28;20043;-84
2021/07/24 03:31:37;;;;;;;2.50;1.45;;;15.90;75.70;;;;;;5039381;28;20048;-83
2021/07/24 03:34:02;;;;;;;2.53;1.25;;;15.90;75.80;;;;;;5055323;28;20398;-84
2021/07/24 03:36:28;;;;;;;2.30;1.20;;;15.90;75.80;;;;;;5038966;28;20094;-86
2021/07/24 03:38:54;;;;;;;1.98;1.20;;;15.90;75.90;;;;;;5036885;28;20101;-84
2021/07/24 03:41:19;;;;;;;1.48;1.17;;;15.90;76.00;;;;;;5036999;28;20075;-85
2021/07/24 03:43:45;;;;;;;2.15;1.17;;;15.90;76.00;;;;;;5055717;28;20475;-84
2021/07/24 03:46:15;;;;;;;1.75;1.20;;;15.90;76.00;;;;;;5055935;28;20123;-84
2021/07/24 03:48:40;;;;;;;2.03;1.20;;;15.90;76.10;;;;;;5039494;28;20041;-83
2021/07/24 03:51:10;;;;;;;2.42;1.42;;;15.80;76.10;;;;;;5022285;28;20386;-84
2021/07/24 03:53:37;;;;;;;1.65;1.15;;;15.80;76.20;;;;;;5039391;28;20036;-85
2021/07/24 03:56:02;;;;;;;2.95;1.42;;;15.80;76.20;;;;;;5051657;28;20053;-83
2021/07/24 03:58:28;;;;;;;1.52;1.02;;;15.80;76.20;;;;;;5075900;28;20121;-83
2021/07/24 04:00:54;;;;;;;3.03;1.38;;;15.80;76.20;;;;;;5077244;28;20486;-84
2021/07/24 04:03:24;;;;;;;2.90;1.48;;;15.80;76.30;;;;;;5041365;28;20114;-84
2021/07/24 04:05:52;;;;;;;1.90;1.17;;;15.80;76.30;;;;;;5057151;28;20051;-85
2021/07/24 04:08:18;;;;;;;1.90;1.30;;;15.80;76.30;;;;;;5040346;28;20381;-84
2021/07/24 04:10:45;;;;;;;2.67;1.42;;;15.80;76.30;;;;;;5037621;28;20036;-85
2021/07/24 04:13:11;;;;;;;1.50;1.00;;;15.80;76.40;;;;;;5039226;28;20040;-84
2021/07/24 04:15:38;;;;;;;2.78;1.45;;;15.80;76.50;;;;;;5074226;28;20044;-84
2021/07/24 04:18:07;;;;;;;1.83;1.33;;;15.80;76.40;;;;;;5074570;28;20048;-85
2021/07/24 04:20:35;;;;;;;2.08;1.27;;;15.80;76.40;;;;;;5054288;28;20040;-85
2021/07/24 04:23:01;;;;;;;2.30;1.30;;;15.80;76.50;;;;;;5023308;28;20036;-86
2021/07/24 04:25:26;;;;;;;2.15;1.33;;;15.80;76.50;;;;;;5053053;28;20486;-83
2021/07/24 04:27:52;;;;;;;1.65;1.20;;;15.80;76.50;;;;;;5053199;28;20183;-84
2021/07/24 04:30:18;;;;;;;1.83;1.30;;;15.80;76.40;;;;;;5072905;28;20043;-84
2021/07/24 04:32:44;;;;;;;1.88;1.27;;;15.80;76.40;;;;;;5072882;28;20398;-84
2021/07/24 04:35:09;;;;;;;1.35;1.15;;;15.90;76.40;;;;;;5036243;28;20032;-84
2021/07/24 04:37:35;;;;;;;2.05;1.40;;;15.90;76.40;;;;;;5054954;28;20044;-84
2021/07/24 04:40:02;;;;;;;2.58;1.48;;;16.00;76.40;;;;;;5021779;28;20051;-84
2021/07/24 04:42:28;;;;;;;1.20;0.93;;;16.00;76.40;;;;;;5052919;28;20123;-83
2021/07/24 04:44:54;;;;;;;1.92;1.30;;;16.00;76.40;;;;;;5055551;28;20119;-84
2021/07/24 04:47:20;;;;;;;1.80;1.30;;;16.10;76.40;;;;;;5071547;28;20093;-85
2021/07/24 04:49:49;;;;;;;2.10;1.40;;;16.00;76.30;;;;;;5038138;28;20044;-84
2021/07/24 04:52:16;;;;;;;1.88;1.30;;;16.00;76.40;;;;;;5052760;28;20524;-83
2021/07/24 04:54:43;;;;;;;1.52;0.90;;;16.00;76.40;;;;;;5038352;28;20051;-83
2021/07/24 04:57:10;;;;;;;1.83;1.30;;;16.10;76.50;;;;;;5054387;28;20505;-84
2021/07/24 04:59:37;;;;;;;2.35;1.00;;;16.10;77.10;;;;;;5055233;28;20044;-83
2021/07/24 05:02:04;;;;;;;2.58;1.40;;;16.10;76.50;;;;;;5054448;28;20094;-85
2021/07/24 05:04:31;;;;;;;1.65;1.10;;;16.20;76.50;;;;;;5037937;28;20537;-83
2021/07/24 05:06:57;;;;;;;1.52;1.08;;;16.10;76.40;;;;;;5020413;28;20090;-85
2021/07/24 05:09:23;;;;;;;1.55;1.02;;;16.20;76.40;;;;;;5036404;28;20068;-85
2021/07/24 05:11:48;;;;;;;2.10;1.40;;;16.20;76.40;;;;;;5048686;28;20032;-84
2021/07/24 05:14:14;;;;;;;2.85;1.55;;;16.30;76.40;;;;;;5054438;28;20086;-83
2021/07/24 05:16:40;;;;;;;1.95;1.23;;;16.30;76.40;;;;;;5072239;28;20173;-84
2021/07/24 05:19:06;;;;;;;1.70;1.30;;;16.20;76.30;;;;;;5070288;28;20052;-84
2021/07/24 05:21:31;;;;;;;1.95;1.10;;;16.40;76.40;;;;;;5054843;28;20102;-84
2021/07/24 05:23:57;;;;;;;1.75;1.10;;;16.40;76.30;;;;;;5054278;28;20044;-83
2021/07/24 05:26:23;;;;;;;1.60;1.20;;;16.40;76.30;;;;;;5021226;28;20437;-85
2021/07/24 05:28:49;;;;;;;1.80;1.38;;;16.50;76.30;;;;;;5052231;28;20036;-86
2021/07/24 05:31:16;;;;;;;2.00;1.25;;;16.50;76.20;;;;;;5072455;28;20398;-85
2021/07/24 05:33:42;;;;;;;1.83;1.20;;;16.60;76.20;;;;;;5021169;28;20116;-85
2021/07/24 05:36:08;;;;;;;1.90;1.10;;;16.60;76.20;;;;;;5035681;28;20135;-84
2021/07/24 05:38:33;;;;;;;1.85;1.30;;;16.60;76.10;;;;;;5069999;28;20442;-85
2021/07/24 05:41:00;;;;;;;1.95;1.20;;;16.60;76.00;;;;;;5036051;28;20044;-84
2021/07/24 05:43:27;;;;;;;1.48;1.00;;;16.70;76.00;;;;;;5053708;28;20490;-83
2021/07/24 05:45:52;;;;;;;1.67;1.08;;;16.80;76.00;;;;;;5033500;28;20073;-84
2021/07/24 05:48:18;;;;;;;1.13;1.00;;;16.90;75.90;;;;;;5071749;28;20419;-85
2021/07/24 05:50:44;;;;;;;1.70;1.10;;;17.00;75.80;;;;;;5072073;28;20036;-83
2021/07/24 05:53:10;;;;;;;1.52;1.02;;;17.00;75.60;;;;;;5052167;28;20076;-84
2021/07/24 05:55:37;;;;;;;1.67;1.25;;;17.10;75.60;;;;;;5071748;28;20043;-85
2021/07/24 05:58:03;;;;;;;1.65;1.08;;;17.20;75.50;;;;;;5070714;28;20119;-83
2021/07/24 06:00:29;;;;;;;1.77;1.10;;;17.20;75.50;;;;;;5020694;28;20451;-84
2021/07/24 06:02:54;;;;;;;1.63;1.08;;;17.30;75.40;;;;;;5057597;28;20036;-85
2021/07/24 06:05:20;;;;;;;1.63;1.10;;;17.30;75.30;;;;;;5057150;28;20363;-84
2021/07/24 06:07:46;;;;;;;1.23;1.13;;;17.40;75.20;;;;;;5042080;28;20041;-82
2021/07/24 06:14:46;;;;;;;1.20;0.93;;;17.40;75.40;;;;;;4965948;28;20165;-80
2021/07/24 06:39:24;;;;;;;1.27;0.80;;;18.20;74.40;;;;;;4663505;30;20120;-80
2021/07/24 07:17:11;;;;;;;1.65;1.08;;;18.60;74.20;;;;;;4800532;29;20039;-79
2021/07/24 07:24:23;;;;;;;0.73;0.70;;;18.80;74.10;;;;;;4766461;30;20058;-80
2021/07/24 07:31:51;;;;;;;0.80;0.70;;;18.80;73.80;;;;;;4781348;30;20188;-80
2021/07/24 07:35:14;;;;;;;1.42;1.10;;;19.00;73.90;;;;;;4774197;30;20120;-79
2021/07/24 07:53:19;;;;;;;1.58;1.10;;;19.30;73.60;;;;;;4831977;29;20057;-79
2021/07/24 08:07:00;;;;;;;1.55;1.08;;;19.90;72.90;;;;;;4800644;29;20054;-82
2021/07/24 08:10:31;;;;;;;1.45;0.90;;;20.10;72.50;;;;;;4781642;29;20071;-81
2021/07/24 08:13:48;;;;;;;1.38;1.02;;;20.40;72.10;;;;;;4766051;30;20059;-81
2021/07/24 08:16:20;;;;;;;1.55;1.17;;;20.80;71.50;;;;;;4771155;30;20043;-86
2021/07/24 08:19:16;;;;;;;1.98;1.25;;;21.00;71.10;;;;;;4690742;30;20219;-82
2021/07/24 08:25:10;;;;;;;1.92;1.42;;;21.50;70.40;;;;;;4731994;30;20060;-85
2021/07/24 08:28:01;;;;;;;1.60;1.27;;;21.80;70.10;;;;;;4750511;30;20049;-84
2021/07/24 08:30:27;;;;;;;;;;;21.90;69.90;;;;;;4748147;30;20065;-89
2021/07/24 08:32:55;;;;;;;1.60;1.30;;;22.10;69.70;;;;;;4745226;30;19906;-85
2021/07/24 08:35:28;;;;;;;1.65;1.30;;;22.10;69.50;;;;;;4773195;30;20062;-84
2021/07/24 08:37:57;;;;;;;2.20;1.45;;;22.20;69.60;;;;;;4851132;29;20045;-84
2021/07/24 08:40:26;;;;;;;1.92;1.40;;;22.40;69.60;;;;;;4784096;29;20055;-85
2021/07/24 08:42:54;;;;;;;1.70;1.40;;;22.50;69.60;;;;;;4804997;29;20038;-84
2021/07/24 08:45:28;;;;;;;1.65;1.27;;;22.70;69.30;;;;;;4815082;29;20054;-86
2021/07/24 08:47:54;;;;;;;1.77;1.40;;;22.80;69.10;;;;;;4803046;29;20456;-84
2021/07/24 08:50:19;;;;;;;2.40;1.35;;;22.80;69.10;;;;;;4883935;29;20032;-83
2021/07/24 08:52:56;;;;;;;3.78;1.38;;;22.80;69.10;;;;;;4911897;29;20577;-85
2021/07/24 08:55:22;;;;;;;2.10;1.55;;;22.90;69.20;;;;;;4890986;29;20128;-83
2021/07/24 08:57:51;;;;;;;1.20;1.10;;;22.90;69.40;;;;;;4923225;29;20137;-83
2021/07/24 09:00:19;;;;;;;2.58;1.50;;;23.00;69.30;;;;;;4888445;29;20506;-84
2021/07/24 09:02:46;;;;;;;2.92;1.60;;;23.00;69.20;;;;;;4915232;29;20068;-83
2021/07/24 09:09:17;;;;;;;1.13;0.90;;;23.00;69.40;;;;;;4914414;29;20143;-85
2021/07/24 09:11:47;;;;;;;1.33;1.15;;;23.10;69.50;;;;;;4918436;28;20202;-85
2021/07/24 09:14:12;;;;;;;3.40;1.50;;;23.30;69.30;;;;;;4955433;28;20065;-84
2021/07/24 09:16:41;;;;;;;1.98;1.42;;;23.50;68.70;;;;;;4972165;28;20541;-85
2021/07/24 09:19:07;;;;;;;1.70;1.40;;;23.80;68.20;;;;;;4993236;28;20045;-83
2021/07/24 09:21:36;;;;;;;1.90;1.48;;;24.00;67.80;;;;;;5011535;28;20104;-84
2021/07/24 09:24:21;;;;;;;2.35;1.50;;;24.00;67.70;;;;;;5025982;28;20090;-83
2021/07/24 09:26:47;;;;;;;2.17;1.40;;;24.10;67.70;;;;;;5026259;28;20085;-82
2021/07/24 09:29:15;;;;;;;1.60;1.50;;;24.20;67.70;;;;;;5010525;28;20054;-82
2021/07/24 09:31:42;;;;;;;1.98;1.40;;;24.30;67.80;;;;;;5011698;28;20049;-82
2021/07/24 09:34:10;;;;;;;1.63;1.20;;;24.30;67.60;;;;;;5035852;28;20142;-83
2021/07/24 09:36:37;;;;;;;2.08;1.48;;;24.40;67.70;;;;;;5037096;28;20045;-84
2021/07/24 09:39:18;;;;;;;1.50;1.20;;;24.50;67.70;;;;;;5034974;28;20044;-83
2021/07/24 09:41:47;;;;;;;1.92;1.30;;;24.40;67.90;;;;;;5052315;28;20122;-84
2021/07/24 09:49:20;;;;;;;1.63;1.25;;;24.40;68.00;;;;;;5070822;28;20095;-87
2021/07/24 09:55:52;;;;;;;1.77;1.40;;;24.40;68.50;;;;;;5043990;28;20082;-86
2021/07/24 09:58:19;;;;;;;1.38;1.10;;;24.50;68.50;;;;;;5056855;28;20063;-85
2021/07/24 10:00:46;;;;;;;2.05;1.40;;;24.50;68.50;;;;;;5040486;28;20040;-85
2021/07/24 10:03:11;;;;;;;1.50;1.10;;;24.50;68.60;;;;;;5053209;28;20076;-85
2021/07/24 10:05:40;;;;;;;1.38;1.27;;;24.60;68.60;;;;;;5058031;28;20060;-86
2021/07/24 10:08:16;;;;;;;1.58;1.30;;;24.60;68.60;;;;;;5023952;28;20052;-88
2021/07/24 10:14:21;;;;;;;1.38;1.27;;;24.50;68.80;;;;;;4938323;29;20058;-85
2021/07/24 10:16:52;;;;;;;1.85;1.40;;;24.50;68.90;;;;;;4975972;28;20043;-86
2021/07/24 10:19:18;;;;;;;;;;;24.40;68.90;;;;;;4937245;29;20044;-85
2021/07/24 10:21:45;;;;;;;1.45;1.20;;;24.40;68.90;;;;;;4954757;29;19982;-84
2021/07/24 10:24:12;;;;;;;1.17;1.08;;;24.40;68.90;;;;;;4953428;28;20462;-84
2021/07/24 10:30:08;;;;;;;3.00;1.63;;;24.50;68.90;;;;;;4956610;29;20054;-85
2021/07/24 10:35:39;;;;;;;2.17;1.50;;;24.50;69.20;;;;;;4910383;29;20066;-87
2021/07/24 10:38:33;;;;;;;1.70;1.33;;;24.40;69.00;;;;;;4955110;29;20144;-86
2021/07/24 10:41:40;;;;;;;2.40;1.63;;;24.50;69.00;;;;;;4922801;29;20093;-83
2021/07/24 10:44:15;;;;;;;2.42;1.67;;;24.40;69.10;;;;;;4938361;29;20043;-87
2021/07/24 10:47:18;;;;;;;2.30;1.40;;;24.30;69.10;;;;;;4954837;28;20058;-86
2021/07/24 10:50:02;;;;;;;2.28;1.60;;;24.40;69.20;;;;;;4961635;28;20094;-87
2021/07/24 10:53:04;;;;;;;2.22;1.65;;;24.30;69.10;;;;;;5016518;28;20046;-86
2021/07/24 10:55:38;;;;;;;1.70;1.50;;;24.40;69.30;;;;;;5016118;28;20075;-87
2021/07/24 10:58:05;;;;;;;2.30;1.67;;;24.30;69.50;;;;;;5016313;28;20279;-87
2021/07/24 11:00:32;;;;;;;2.53;1.67;;;24.30;69.60;;;;;;5041731;28;20041;-83
2021/07/24 11:02:58;;;;;;;2.47;1.55;;;24.20;70.30;;;;;;5038682;28;20041;-83
2021/07/24 11:05:25;;;;;;;2.13;1.40;;;24.20;69.70;;;;;;5037863;28;20052;-82
2021/07/24 11:07:51;;;;;;;2.60;1.33;;;24.20;69.70;;;;;;5064929;28;20067;-81
2021/07/24 11:11:03;;;;;;;1.83;1.55;;;24.10;69.70;;;;;;5066172;28;20048;-88
2021/07/24 11:13:45;;;;;;;2.17;1.60;;;24.30;69.70;;;;;;5059117;28;20049;-84
2021/07/24 11:16:11;;;;;;;2.17;1.60;;;24.30;69.70;;;;;;5076774;28;20040;-84
2021/07/24 11:18:37;;;;;;;2.53;1.70;;;24.20;69.70;;;;;;5055769;28;20441;-85
2021/07/24 11:21:03;;;;;;;3.53;1.80;;;24.10;69.80;;;;;;5036639;28;20510;-85
2021/07/24 11:23:28;;;;;;;2.65;1.50;;;24.10;69.80;;;;;;5019918;28;20513;-84
2021/07/24 11:26:02;;;;;;;2.00;1.50;;;24.00;69.80;;;;;;5056553;28;20135;-84
2021/07/24 11:28:27;;;;;;;2.10;1.67;;;24.00;70.00;;;;;;5039914;28;20128;-85
2021/07/24 11:30:58;;;;;;;1.70;1.40;;;23.90;70.10;;;;;;5073789;28;20064;-85
2021/07/24 11:33:28;;;;;;;2.42;1.58;;;23.90;70.10;;;;;;5057045;28;20039;-84
2021/07/24 11:36:03;;;;;;;2.03;1.47;;;23.90;70.10;;;;;;5040719;28;20048;-85
2021/07/24 11:38:28;;;;;;;1.60;1.35;;;23.90;70.10;;;;;;5039273;28;20294;-86
2021/07/24 11:41:00;;;;;;;1.95;1.30;;;23.80;69.90;;;;;;5037242;28;20048;-85
2021/07/24 11:43:26;;;;;;;2.10;1.58;;;23.90;70.00;;;;;;5056046;28;20141;-86
2021/07/24 11:46:08;;;;;;;1.70;1.48;;;24.00;70.00;;;;;;5056523;28;20121;-86
2021/07/24 11:52:24;;;;;;;2.13;1.50;;;24.00;69.80;;;;;;5029213;28;20096;-84
2021/07/24 11:54:51;;;;;;;2.05;1.40;;;24.00;69.80;;;;;;5032492;28;20049;-85
2021/07/24 11:57:41;;;;;;;1.75;1.35;;;23.90;69.70;;;;;;5031450;28;20145;-84
2021/07/24 12:00:08;;;;;;;2.30;1.55;;;24.00;69.70;;;;;;4982084;28;20041;-84
2021/07/24 12:02:39;;;;;;;2.22;1.70;;;24.00;69.60;;;;;;5032130;28;20523;-87
2021/07/24 12:05:05;;;;;;;2.15;1.63;;;24.10;69.70;;;;;;5029397;28;20041;-84
2021/07/24 12:07:31;;;;;;;2.90;1.73;;;24.10;69.70;;;;;;5030099;28;20045;-85
2021/07/24 12:10:02;;;;;;;2.63;1.70;;;24.10;69.60;;;;;;5031031;28;20049;-87
2021/07/24 12:12:30;;;;;;;2.25;1.63;;;24.10;69.70;;;;;;4995435;28;20065;-87
2021/07/24 12:14:56;;;;;;;2.58;1.70;;;24.00;69.60;;;;;;4994731;28;20048;-87
2021/07/24 12:17:34;;;;;;;2.17;1.60;;;24.10;69.70;;;;;;4994193;28;20129;-87
2021/07/24 12:20:16;;;;;;;2.10;1.60;;;24.00;69.70;;;;;;4997677;28;20046;-88
2021/07/24 12:22:50;;;;;;;1.88;1.50;;;24.00;69.70;;;;;;4998193;28;20049;-89
2021/07/24 12:25:16;;;;;;;2.85;1.85;;;24.00;69.80;;;;;;4997398;28;20045;-87
2021/07/24 12:27:51;;;;;;;2.33;1.60;;;24.00;69.80;;;;;;4998808;28;20048;-88
2021/07/24 12:31:05;;;;;;;1.70;1.30;;;24.00;70.00;;;;;;4991701;28;20505;-87
2021/07/24 12:33:55;;;;;;;2.63;1.70;;;24.00;70.10;;;;;;4953745;28;20039;-87
2021/07/24 12:36:22;;;;;;;2.00;1.60;;;24.00;70.10;;;;;;4952994;28;20584;-87
2021/07/24 12:42:10;;;;;;;1.85;1.42;;;23.80;70.20;;;;;;4901651;29;20051;-88
2021/07/24 12:48:20;;;;;;;2.10;1.45;;;23.80;70.50;;;;;;4933743;29;20063;-84
2021/07/24 12:55:05;;;;;;;1.73;1.42;;;23.70;70.70;;;;;;4934278;29;20058;-86
2021/07/24 12:57:32;;;;;;;1.52;1.23;;;23.70;70.60;;;;;;4933429;29;20050;-85
2021/07/24 12:59:59;;;;;;;1.67;1.48;;;23.80;70.60;;;;;;4933914;29;20051;-86
2021/07/24 13:03:11;;;;;;;1.63;1.33;;;23.80;70.60;;;;;;4917597;29;20075;-86
2021/07/24 13:05:39;;;;;;;2.15;1.52;;;23.80;70.50;;;;;;4934240;29;20051;-85
2021/07/24 13:08:19;;;;;;;1.92;1.58;;;23.90;70.60;;;;;;4904289;29;20044;-88
2021/07/24 13:18:10;;;;;;;1.23;1.13;;;24.00;70.20;;;;;;4850755;29;20547;-87
2021/07/24 13:25:20;;;;;;;2.13;1.60;;;24.00;70.20;;;;;;4860929;29;20133;-90
2021/07/24 13:30:32;;;;;;;2.53;1.63;;;24.20;69.90;;;;;;4861320;29;20050;-87
2021/07/24 13:37:01;;;;;;;2.05;1.67;;;24.10;69.80;;;;;;4873665;29;20064;-85
2021/07/24 13:39:31;;;;;;;2.35;1.40;;;24.00;70.00;;;;;;4874154;29;20045;-91
2021/07/24 13:42:08;;;;;;;2.92;1.77;;;24.00;70.20;;;;;;4878514;29;20041;-89
2021/07/24 13:44:39;;;;;;;1.88;1.60;;;24.00;70.10;;;;;;4898724;29;20044;-89
2021/07/24 13:47:50;;;;;;;2.10;1.55;;;24.10;70.10;;;;;;4912472;29;20049;-89
2021/07/24 13:50:54;;;;;;;2.97;1.92;;;24.10;70.00;;;;;;4915980;29;20050;-91
2021/07/24 14:06:09;;;;;;;3.22;1.98;;;23.90;70.00;;;;;;4877410;29;20141;-90
2021/07/24 14:08:38;;;;;;;2.58;1.75;;;23.80;70.00;;;;;;4879096;29;20048;-84
2021/07/24 14:11:21;;;;;;;3.10;1.88;;;23.70;70.00;;;;;;4869101;29;20040;-83
2021/07/24 14:14:04;;;;;;;2.88;1.83;;;23.70;70.00;;;;;;4905552;29;20144;-85
2021/07/24 14:16:33;;;;;;;2.20;1.65;;;23.80;70.10;;;;;;4913943;29;20051;-86
2021/07/24 14:19:01;;;;;;;2.65;1.65;;;23.90;70.00;;;;;;4912487;29;20041;-86
2021/07/24 14:21:27;;;;;;;2.30;1.55;;;24.00;69.80;;;;;;4929966;29;20041;-85
2021/07/24 14:23:56;;;;;;;2.17;1.85;;;23.80;69.50;;;;;;4911707;29;20049;-87
2021/07/24 14:26:28;;;;;;;2.03;1.70;;;23.90;69.60;;;;;;4916675;29;20040;-86
2021/07/24 14:28:54;;;;;;;3.53;1.67;;;24.00;69.80;;;;;;4916864;29;20040;-83
2021/07/24 14:31:31;;;;;;;2.72;1.80;;;23.80;70.30;;;;;;4922198;29;20039;-85
2021/07/24 14:33:57;;;;;;;2.40;1.67;;;23.80;69.80;;;;;;4953682;29;20074;-80
2021/07/24 14:36:22;;;;;;;2.05;1.52;;;23.80;69.80;;;;;;4947582;29;20519;-85
2021/07/24 14:38:48;;;;;;;3.13;1.80;;;23.80;69.80;;;;;;4934027;29;20261;-83
2021/07/24 14:41:16;;;;;;;1.73;1.48;;;23.70;69.90;;;;;;4979835;28;20057;-85
2021/07/24 14:44:23;;;;;;;2.75;1.80;;;23.80;70.00;;;;;;5049569;28;20131;-89
2021/07/24 14:50:52;;;;;;;2.45;1.70;;;23.90;69.80;;;;;;4972706;28;20039;-85
2021/07/24 14:53:18;;;;;;;3.03;1.77;;;23.80;69.80;;;;;;4943253;28;20127;-86
2021/07/24 14:55:47;;;;;;;2.30;1.65;;;23.70;69.80;;;;;;4926593;28;20074;-86
2021/07/24 14:58:22;;;;;;;3.35;1.85;;;23.90;70.00;;;;;;4958769;28;20039;-85
2021/07/24 15:00:48;;;;;;;3.25;1.98;;;23.60;70.00;;;;;;4943853;28;20054;-84
2021/07/24 15:03:13;;;;;;;2.47;1.90;;;23.70;70.10;;;;;;4974776;28;20038;-83
2021/07/24 15:05:39;;;;;;;2.47;1.70;;;23.60;70.20;;;;;;4941483;28;20609;-83
2021/07/24 15:08:05;;;;;;;2.20;1.70;;;23.60;70.30;;;;;;4957842;28;20118;-83
2021/07/24 15:10:36;;;;;;;3.85;1.77;;;23.60;70.30;;;;;;4980732;28;20038;-85
2021/07/24 15:13:07;;;;;;;;;;;23.60;70.30;;;;;;4942673;28;20528;-84
2021/07/24 15:15:32;;;;;;;;;;;23.50;70.10;;;;;;4942117;28;19921;-83
2021/07/24 15:17:58;;;;;;;1.88;1.40;;;23.60;70.30;;;;;;4973625;28;19914;-84
2021/07/24 15:20:23;;;;;;;1.80;1.50;;;23.50;70.40;;;;;;4941172;28;20416;-84
2021/07/24 15:22:49;;;;;;;2.13;1.63;;;23.40;70.50;;;;;;4973247;28;20460;-84
2021/07/24 15:25:15;;;;;;;2.38;1.65;;;23.40;70.60;;;;;;4957343;28;20042;-84
2021/07/24 15:27:41;;;;;;;2.22;1.70;;;23.30;70.60;;;;;;4987885;28;20115;-85
2021/07/24 15:30:07;;;;;;;1.65;1.40;;;23.30;70.80;;;;;;5031784;28;20050;-85
2021/07/24 15:32:35;;;;;;;2.10;1.63;;;23.30;70.80;;;;;;5015367;28;20042;-85
2021/07/24 15:35:04;;;;;;;2.00;1.55;;;23.30;70.70;;;;;;5013454;28;20040;-84
2021/07/24 15:37:29;;;;;;;1.98;1.55;;;23.20;70.80;;;;;;5015746;28;20119;-85
2021/07/24 15:39:55;;;;;;;3.10;2.00;;;23.30;70.70;;;;;;5015705;28;20649;-81
2021/07/24 15:42:21;;;;;;;2.60;2.00;;;23.30;70.70;;;;;;5012867;28;20092;-81
2021/07/24 15:44:46;;;;;;;3.42;2.30;;;23.30;70.70;;;;;;5048125;28;20131;-82
2021/07/24 15:47:12;;;;;;;2.97;2.10;;;23.30;70.80;;;;;;5038715;28;20093;-82
2021/07/24 15:49:38;;;;;;;2.85;2.00;;;23.30;70.60;;;;;;5073796;28;20041;-81
2021/07/24 15:52:03;;;;;;;2.72;1.73;;;23.30;70.70;;;;;;5036593;28;20036;-80
2021/07/24 15:54:29;;;;;;;2.50;1.85;;;23.20;70.60;;;;;;5055353;28;20079;-81
2021/07/24 15:56:55;;;;;;;3.75;2.30;;;23.20;70.60;;;;;;5055068;28;20043;-82
2021/07/24 15:59:20;;;;;;;3.10;2.20;;;23.10;70.60;;;;;;5038568;28;20047;-81
2021/07/24 16:01:46;;;;;;;2.08;1.67;;;23.20;70.80;;;;;;5055480;28;20397;-80
2021/07/24 16:04:12;;;;;;;3.88;2.22;;;23.10;70.80;;;;;;5036452;28;20036;-82
2021/07/24 16:06:37;;;;;;;3.70;2.30;;;23.10;70.90;;;;;;5055121;28;20048;-81
2021/07/24 16:09:03;;;;;;;3.50;2.28;;;23.10;70.80;;;;;;5022254;28;20047;-82
2021/07/24 16:11:29;;;;;;;3.85;2.50;;;23.00;70.70;;;;;;5072959;28;20044;-81
2021/07/24 16:13:55;;;;;;;4.25;2.90;;;23.00;70.80;;;;;;5036336;28;20059;-82
2021/07/24 16:16:22;;;;;;;2.58;1.92;;;23.00;71.00;;;;;;5055139;28;20113;-80
2021/07/24 16:18:49;;;;;;;2.92;2.10;;;23.00;70.90;;;;;;5036544;28;20060;-80
2021/07/24 16:21:16;;;;;;;3.83;2.47;;;22.90;71.00;;;;;;5054761;28;20135;-80
2021/07/24 16:23:42;;;;;;;3.10;2.13;;;22.90;71.00;;;;;;5070697;28;20517;-81